This is the latest recevied weather packets stored in our database for station/object KV4OP. If no packets are shown the sender has not sent any weather packets the latest 10 day(s).
| Time | Temp. | Humidity | Pressure | Rain* | Wind** | Luminosity | Snow |
|---|---|---|---|---|---|---|---|
| 1777607709 | 26.11° C | 71% | 1012.3 hPa | 0 mm | - | - | - |
| 1777607408 | 26.11° C | 70% | 1012.2 hPa | 0 mm | - | - | - |
| 1777607116 | 26.11° C | 70% | 1012.3 hPa | 0 mm | - | - | - |
| 1777606813 | 26.11° C | 71% | 1012.3 hPa | 0 mm | - | - | - |
| 1777606512 | 26.11° C | 70% | 1012.4 hPa | 0 mm | - | - | - |
| 1777606209 | 26.11° C | 70% | 1012.3 hPa | 0 mm | - | - | - |
| 1777605913 | 26.11° C | 70% | 1012.3 hPa | 0 mm | - | - | - |
| 1777605609 | 26.67° C | 70% | 1012.3 hPa | 0 mm | - | - | - |
| 1777605308 | 26.67° C | 70% | 1012.3 hPa | 0 mm | - | - | - |
| 1777605008 | 26.67° C | 70% | 1012.1 hPa | 0 mm | - | - | - |
| 1777604708 | 26.67° C | 70% | 1011.9 hPa | 0 mm | - | - | - |
| 1777604410 | 26.67° C | 69% | 1011.9 hPa | 0 mm | - | - | - |
| 1777604109 | 26.67° C | 69% | 1011.9 hPa | 0 mm | - | - | - |
| 1777603807 | 26.67° C | 69% | 1011.8 hPa | 0 mm | - | - | - |
| 1777603506 | 26.67° C | 68% | 1011.8 hPa | 0 mm | - | - | - |
| 1777603207 | 27.22° C | 68% | 1011.9 hPa | 0 mm | - | - | - |
| 1777602907 | 27.22° C | 68% | 1012 hPa | 0 mm | - | - | - |
| 1777602606 | 27.22° C | 68% | 1012 hPa | 0 mm | - | - | - |
| 1777602306 | 27.22° C | 67% | 1011.9 hPa | 0 mm | - | - | - |
| 1777602006 | 27.22° C | 66% | 1011.8 hPa | 0 mm | - | - | - |
| 1777601108 | 27.22° C | 64% | 1011.5 hPa | 0 mm | - | - | - |
| 1777600821 | 27.22° C | 64% | 1011.3 hPa | 0 mm | - | - | - |
| 1777587055 | 31.11° C | 48% | 1009.4 hPa | 0 mm | - | - | - |
| 1777584954 | 31.67° C | 44% | 1009.2 hPa | 0 mm | - | - | - |
| 1777584653 | 32.22° C | 43% | 1009.2 hPa | 0 mm | - | - | - |
* Rain latest hour (hover to see other rain measurements)
** Current wind speed in m/s (hover to see current wind gust speed)